Time;durP1;ratioP1;P1;durP2;ratioP2;P2;SDS_P1;SDS_P2;PMS_P1;PMS_P2;Temp;Humidity;BMP_temperature;BMP_pressure;BME280_temperature;BME280_humidity;BME280_pressure;Samples;Min_cycle;Max_cycle;Signal;HPM_P1;HPM_P2
2021/08/24 00:01:52;;;;;;;7.60;4.27;;;;;;;11.52;100.00;94422.66;5074272;28;20198;-82
2021/08/24 00:04:19;;;;;;;6.87;4.03;;;;;;;11.37;100.00;94420.13;5073998;28;20708;-82
2021/08/24 00:06:46;;;;;;;7.87;3.97;;;;;;;11.24;100.00;94420.81;5074189;28;20198;-82
2021/08/24 00:09:12;;;;;;;11.53;4.10;;;;;;;11.20;100.00;94424.81;5074182;28;20234;-82
2021/08/24 00:11:39;;;;;;;5.60;3.50;;;;;;;11.09;100.00;94433.94;5073975;28;20202;-83
2021/08/24 00:14:07;;;;;;;10.27;5.13;;;;;;;11.03;100.00;94435.53;5073965;28;20206;-82
2021/08/24 00:16:35;;;;;;;11.80;5.40;;;;;;;11.01;100.00;94427.06;5073863;28;20206;-82
2021/08/24 00:19:02;;;;;;;12.93;4.23;;;;;;;10.87;100.00;94430.53;5073677;28;20289;-83
2021/08/24 00:21:28;;;;;;;12.60;5.20;;;;;;;10.74;100.00;94421.56;5073793;28;20206;-83
2021/08/24 00:23:55;;;;;;;7.90;4.23;;;;;;;10.61;100.00;94426.66;5073825;28;20202;-82
2021/08/24 00:26:21;;;;;;;9.50;4.07;;;;;;;10.56;100.00;94418.56;5073871;28;20199;-82
2021/08/24 00:28:48;;;;;;;11.00;4.40;;;;;;;10.57;100.00;94425.41;5073038;28;20234;-82
2021/08/24 00:31:14;;;;;;;11.93;5.17;;;;;;;10.50;100.00;94420.09;5073047;28;20199;-83
2021/08/24 00:33:42;;;;;;;7.43;4.90;;;;;;;10.52;100.00;94418.13;5073665;28;20205;-82
2021/08/24 00:36:12;;;;;;;7.97;4.93;;;;;;;10.30;100.00;94425.06;5073386;28;20244;-82
2021/08/24 00:38:38;;;;;;;7.20;4.10;;;;;;;10.16;100.00;94429.31;5073567;28;20222;-82
2021/08/24 00:41:06;;;;;;;8.93;4.93;;;;;;;10.13;100.00;94423.66;5073459;28;20539;-83
2021/08/24 00:43:36;;;;;;;6.93;4.30;;;;;;;10.07;100.00;94424.38;5073398;28;20206;-82
2021/08/24 00:46:12;;;;;;;7.87;4.13;;;;;;;9.98;100.00;94421.84;5072923;28;20740;-81
2021/08/24 00:48:43;;;;;;;10.67;4.60;;;;;;;9.92;100.00;94422.56;5073408;28;20230;-83
2021/08/24 00:51:10;;;;;;;8.93;4.40;;;;;;;9.85;100.00;94421.69;5073297;28;20207;-81
2021/08/24 00:53:37;;;;;;;15.27;6.23;;;;;;;9.83;100.00;94418.44;5073238;28;20581;-82
2021/08/24 00:56:07;;;;;;;9.50;5.37;;;;;;;10.04;100.00;94416.91;5073204;28;20676;-81
2021/08/24 00:58:34;;;;;;;10.57;5.50;;;;;;;9.88;100.00;94421.31;5073040;28;20569;-82
2021/08/24 01:01:00;;;;;;;11.17;4.80;;;;;;;9.81;100.00;94415.22;5073258;28;20661;-81
2021/08/24 01:03:34;;;;;;;9.03;4.90;;;;;;;9.75;100.00;94406.28;5073141;28;20199;-81
2021/08/24 01:06:07;;;;;;;8.57;5.10;;;;;;;9.79;100.00;94411.94;5073048;28;20202;-81
2021/08/24 01:08:42;;;;;;;11.33;5.80;;;;;;;9.84;100.00;94411.41;5072887;28;20559;-81
2021/08/24 01:11:16;;;;;;;9.40;5.50;;;;;;;9.78;100.00;94410.34;5073198;28;20561;-81
2021/08/24 01:13:51;;;;;;;12.50;6.10;;;;;;;9.90;100.00;94402.88;5073140;28;20202;-81
2021/08/24 01:16:26;;;;;;;10.17;5.57;;;;;;;9.90;100.00;94403.69;5073646;28;20198;-81
2021/08/24 01:19:02;;;;;;;14.93;6.33;;;;;;;9.93;100.00;94402.53;5073049;28;20565;-81
2021/08/24 01:21:55;;;;;;;16.77;7.10;;;;;;;9.94;100.00;94398.91;5072782;28;20198;-81
2021/08/24 01:24:26;;;;;;;12.10;5.57;;;;;;;9.87;100.00;94405.84;5073002;28;20202;-82
2021/08/24 01:27:05;;;;;;;11.33;5.60;;;;;;;9.87;100.00;94404.03;5072947;28;20205;-82
2021/08/24 01:30:02;;;;;;;10.07;5.30;;;;;;;9.82;100.00;94402.00;5072602;28;20690;-81
2021/08/24 01:32:57;;;;;;;12.63;6.00;;;;;;;9.87;100.00;94404.03;5072669;28;20203;-82
2021/08/24 01:35:45;;;;;;;20.83;5.70;;;;;;;9.96;100.00;94402.97;5072837;28;20203;-82
2021/08/24 01:38:19;;;;;;;11.50;5.83;;;;;;;10.00;100.00;94400.81;5072648;28;20210;-82
2021/08/24 01:40:51;;;;;;;15.40;5.90;;;;;;;10.03;100.00;94397.03;5072900;28;20207;-82
2021/08/24 01:43:23;;;;;;;8.93;5.40;;;;;;;10.03;100.00;94402.25;5072599;28;20202;-82
2021/08/24 01:45:57;;;;;;;11.70;5.60;;;;;;;9.94;100.00;94404.13;5076605;28;20565;-81
2021/08/24 01:48:30;;;;;;;14.17;5.43;;;;;;;9.82;100.00;94406.38;5076608;28;20226;-82
2021/08/24 01:51:02;;;;;;;7.23;4.77;;;;;;;9.65;100.00;94395.31;5076767;28;20260;-82
2021/08/24 01:53:35;;;;;;;7.60;4.27;;;;;;;9.50;100.00;94397.13;5061548;28;20199;-83
2021/08/24 01:56:07;;;;;;;10.23;4.80;;;;;;;9.42;100.00;94406.63;5076647;28;20198;-82
2021/08/24 01:58:41;;;;;;;10.33;4.67;;;;;;;9.57;100.00;94400.63;5076584;28;20199;-82
2021/08/24 02:01:12;;;;;;;10.00;4.50;;;;;;;9.44;100.00;94399.44;5076361;28;20653;-82
2021/08/24 02:03:44;;;;;;;7.90;5.03;;;;;;;9.37;100.00;94397.72;5076404;28;20210;-82
2021/08/24 02:06:15;;;;;;;8.73;5.40;;;;;;;9.36;100.00;94396.09;5076418;28;20206;-82
2021/08/24 02:08:48;;;;;;;8.80;4.90;;;;;;;9.23;100.00;94392.31;5076174;28;20735;-82
2021/08/24 02:11:15;;;;;;;14.10;6.00;;;;;;;9.36;100.00;94391.72;5076228;28;20297;-82
2021/08/24 02:13:45;;;;;;;9.57;5.03;;;;;;;9.17;100.00;94389.59;5076048;28;20210;-82
2021/08/24 02:16:18;;;;;;;9.27;4.87;;;;;;;9.06;100.00;94389.03;5076060;28;20202;-82
2021/08/24 02:18:52;;;;;;;7.93;4.70;;;;;;;8.88;100.00;94385.94;5076201;28;20205;-81
2021/08/24 02:21:24;;;;;;;8.50;4.30;;;;;;;8.78;100.00;94385.34;5076210;28;20228;-83
2021/08/24 02:23:55;;;;;;;10.53;4.83;;;;;;;8.76;100.00;94395.13;5075891;28;20202;-83
2021/08/24 02:26:25;;;;;;;10.40;5.13;;;;;;;8.75;100.00;94391.72;5076140;28;20588;-82
2021/08/24 02:28:54;;;;;;;11.65;6.40;;;;;;;8.65;100.00;94398.94;5075281;28;20454;-82
2021/08/24 02:31:27;;;;;;;21.23;6.27;;;;;;;8.72;100.00;94399.06;5075930;28;20198;-82
2021/08/24 02:34:00;;;;;;;12.23;5.40;;;;;;;8.70;100.00;94391.44;5075628;28;20202;-82
2021/08/24 02:36:28;;;;;;;9.83;5.07;;;;;;;8.57;100.00;94397.19;5074965;28;20531;-83
2021/08/24 02:39:01;;;;;;;16.27;5.23;;;;;;;8.60;100.00;94396.06;5075879;28;20214;-82
2021/08/24 02:41:32;;;;;;;11.33;5.57;;;;;;;8.52;100.00;94402.91;5075789;28;20212;-82
2021/08/24 02:44:05;;;;;;;9.47;4.73;;;;;;;8.49;100.00;94398.06;5075791;28;20546;-82
2021/08/24 02:46:36;;;;;;;13.00;4.80;;;;;;;8.44;100.00;94397.78;5075511;28;20235;-81
2021/08/24 02:49:07;;;;;;;13.43;5.03;;;;;;;8.41;100.00;94397.25;5075710;28;20218;-82
2021/08/24 02:51:34;;;;;;;10.43;4.53;;;;;;;8.33;100.00;94395.53;5075831;28;20203;-82
2021/08/24 02:54:12;;;;;;;14.07;5.00;;;;;;;8.26;100.00;94395.41;5074888;28;20199;-82
2021/08/24 02:56:39;;;;;;;10.73;5.10;;;;;;;8.27;100.00;94399.59;5075554;28;20198;-81
2021/08/24 02:59:06;;;;;;;11.03;4.50;;;;;;;8.24;100.00;94405.16;5075263;28;20692;-82
2021/08/24 03:01:32;;;;;;;10.02;5.28;;;;;;;8.14;100.00;94402.78;5074938;28;20457;-83
2021/08/24 03:03:59;;;;;;;10.33;5.67;;;;;;;8.19;100.00;94409.25;5075384;28;20543;-82
2021/08/24 03:06:27;;;;;;;13.53;5.57;;;;;;;8.30;100.00;94403.66;5075410;28;20198;-82
2021/08/24 03:08:54;;;;;;;11.30;5.70;;;;;;;8.13;100.00;94406.34;5075193;28;20223;-82
2021/08/24 03:11:25;;;;;;;11.43;5.40;;;;;;;8.19;100.00;94398.84;5075131;28;20203;-82
2021/08/24 03:13:58;;;;;;;16.83;5.93;;;;;;;8.21;100.00;94402.91;5074974;28;20207;-81
2021/08/24 03:16:29;;;;;;;14.87;5.60;;;;;;;8.28;100.00;94397.84;5075312;28;20207;-82
2021/08/24 03:18:59;;;;;;;11.33;4.57;;;;;;;8.08;100.00;94398.25;5075097;28;20195;-82
2021/08/24 03:21:29;;;;;;;13.80;5.60;;;;;;;8.12;100.00;94393.50;5075092;28;20206;-82
2021/08/24 03:23:56;;;;;;;7.97;5.03;;;;;;;8.06;100.00;94388.97;5075007;28;20198;-82
2021/08/24 03:26:28;;;;;;;15.67;5.43;;;;;;;8.11;100.00;94384.91;5074779;28;20622;-83
2021/08/24 03:28:54;;;;;;;10.70;5.00;;;;;;;8.02;100.00;94388.50;5074976;28;20234;-83
2021/08/24 03:31:23;;;;;;;14.07;5.03;;;;;;;7.88;100.00;94386.63;5074754;28;20213;-82
2021/08/24 03:33:50;;;;;;;10.40;4.47;;;;;;;7.74;100.00;94388.13;5074959;28;20293;-83
2021/08/24 03:36:16;;;;;;;7.90;4.60;;;;;;;7.62;100.00;94392.88;5074875;28;20199;-82
2021/08/24 03:38:43;;;;;;;8.53;4.63;;;;;;;7.54;100.00;94391.13;5074508;28;20611;-82
2021/08/24 03:41:11;;;;;;;11.17;5.30;;;;;;;7.54;100.00;94395.50;5074518;28;20199;-83
2021/08/24 03:43:40;;;;;;;8.50;4.67;;;;;;;7.57;100.00;94392.56;5074513;28;20203;-83
2021/08/24 03:46:06;;;;;;;12.97;5.13;;;;;;;7.57;100.00;94400.38;5074557;28;20583;-82
2021/08/24 03:48:33;;;;;;;15.00;6.10;;;;;;;7.78;100.00;94400.63;5074512;28;20222;-82
2021/08/24 03:50:59;;;;;;;13.17;5.43;;;;;;;7.76;100.00;94404.34;5073313;28;20203;-83
2021/08/24 03:53:26;;;;;;;13.33;5.83;;;;;;;7.72;100.00;94398.69;5074395;28;20206;-82
2021/08/24 03:55:52;;;;;;;14.00;6.30;;;;;;;7.81;100.00;94396.06;5074761;28;20202;-81
2021/08/24 03:58:19;;;;;;;18.10;5.93;;;;;;;7.77;100.00;94401.59;5074398;28;20203;-83
2021/08/24 04:00:48;;;;;;;18.33;6.63;;;;;;;7.80;100.00;94404.88;5074281;28;20210;-83
2021/08/24 04:03:15;;;;;;;11.53;5.73;;;;;;;7.73;100.00;94407.31;5074213;28;20206;-82
2021/08/24 04:05:42;;;;;;;18.73;6.70;;;;;;;7.82;100.00;94413.28;5073728;28;20222;-83
2021/08/24 04:08:09;;;;;;;12.40;5.77;;;;;;;7.68;100.00;94418.22;5073651;28;20199;-84
2021/08/24 04:10:36;;;;;;;11.03;5.57;;;;;;;7.65;100.00;94417.72;5074182;28;20226;-83
2021/08/24 04:13:03;;;;;;;14.67;6.00;;;;;;;7.54;100.00;94427.50;5073879;28;20661;-83
2021/08/24 04:15:29;;;;;;;12.33;5.20;;;;;;;7.48;100.00;94422.97;5073982;28;20199;-83
2021/08/24 04:17:57;;;;;;;8.20;4.47;;;;;;;7.37;100.00;94423.28;5073914;28;20206;-83
2021/08/24 04:20:24;;;;;;;9.07;4.87;;;;;;;7.45;100.00;94422.47;5074598;28;20199;-84
2021/08/24 04:22:52;;;;;;;12.80;5.37;;;;;;;7.47;100.00;94423.94;5073796;28;20206;-84
2021/08/24 04:25:19;;;;;;;10.03;4.87;;;;;;;7.28;100.00;94425.09;5073865;28;20203;-83
2021/08/24 04:27:46;;;;;;;10.37;4.77;;;;;;;7.32;100.00;94431.56;5073732;28;20203;-82
2021/08/24 04:30:14;;;;;;;13.77;4.57;;;;;;;7.18;100.00;94432.25;5073591;28;20223;-82
2021/08/24 04:32:43;;;;;;;14.20;4.57;;;;;;;7.18;100.00;94429.66;5073590;28;20203;-82
2021/08/24 04:35:11;;;;;;;14.87;5.37;;;;;;;7.45;100.00;94440.66;5073314;28;20222;-82
2021/08/24 04:37:38;;;;;;;10.87;4.43;;;;;;;7.26;100.00;94431.41;5073721;28;20566;-82
2021/08/24 04:40:05;;;;;;;11.63;4.77;;;;;;;7.29;100.00;94428.50;5073622;28;20215;-84
2021/08/24 04:42:32;;;;;;;10.60;4.70;;;;;;;7.21;100.00;94437.94;5073426;28;20206;-83
2021/08/24 04:44:58;;;;;;;11.80;5.27;;;;;;;7.27;100.00;94430.47;5073218;28;20198;-83
2021/08/24 04:47:25;;;;;;;15.17;5.27;;;;;;;7.36;100.00;94432.06;5073153;28;20226;-81
2021/08/24 04:49:52;;;;;;;11.90;4.73;;;;;;;7.31;100.00;94429.97;5072988;28;20235;-82
2021/08/24 04:52:20;;;;;;;11.17;5.20;;;;;;;7.36;100.00;94434.66;5073215;28;20210;-82
2021/08/24 04:54:46;;;;;;;12.67;4.60;;;;;;;7.26;100.00;94432.25;5073354;28;20233;-84
2021/08/24 04:57:12;;;;;;;13.47;5.00;;;;;;;7.23;100.00;94429.97;5073125;28;20194;-83
2021/08/24 04:59:39;;;;;;;9.23;4.90;;;;;;;7.20;100.00;94436.28;5073887;28;20206;-83
2021/08/24 05:02:05;;;;;;;12.13;4.50;;;;;;;7.17;100.00;94435.81;5073074;28;20680;-82
2021/08/24 05:04:32;;;;;;;17.30;5.03;;;;;;;7.12;100.00;94432.91;5073084;28;20202;-83
2021/08/24 05:06:58;;;;;;;8.73;4.33;;;;;;;7.21;100.00;94421.50;5073162;28;20194;-83
2021/08/24 05:09:26;;;;;;;10.70;4.90;;;;;;;7.30;100.00;94430.94;5073239;28;20231;-82
2021/08/24 05:11:52;;;;;;;14.30;5.73;;;;;;;7.39;100.00;94429.97;5073315;28;20205;-83
2021/08/24 05:14:19;;;;;;;11.53;5.57;;;;;;;7.37;100.00;94421.50;5072923;28;20199;-84
2021/08/24 05:16:45;;;;;;;19.37;5.53;;;;;;;7.38;100.00;94427.53;5072859;28;20206;-84
2021/08/24 05:19:12;;;;;;;16.20;6.00;;;;;;;7.43;100.00;94427.00;5072977;28;20198;-83
2021/08/24 05:21:38;;;;;;;14.40;6.23;;;;;;;7.63;100.00;94420.50;5073072;28;20201;-82
2021/08/24 05:24:05;;;;;;;18.23;5.83;;;;;;;7.64;100.00;94416.91;5073126;28;20202;-82
2021/08/24 05:26:33;;;;;;;20.53;6.07;;;;;;;7.66;100.00;94421.94;5072922;28;20206;-82
2021/08/24 05:29:00;;;;;;;13.50;5.67;;;;;;;7.70;100.00;94420.63;5072805;28;20227;-83
2021/08/24 05:31:26;;;;;;;14.97;5.73;;;;;;;7.71;100.00;94428.28;5072804;28;20252;-82
2021/08/24 05:33:52;;;;;;;12.33;4.70;;;;;;;7.71;100.00;94428.28;5073020;28;20565;-83
2021/08/24 05:36:19;;;;;;;16.90;5.20;;;;;;;7.82;100.00;94431.50;5072936;28;20195;-83
2021/08/24 05:38:46;;;;;;;14.03;5.63;;;;;;;7.91;100.00;94440.88;5071460;28;20202;-83
2021/08/24 05:41:12;;;;;;;16.37;5.57;;;;;;;7.98;100.00;94434.03;5072815;28;20199;-81
2021/08/24 05:43:40;;;;;;;9.63;4.87;;;;;;;8.03;100.00;94436.94;5072721;28;20661;-83
2021/08/24 05:46:10;;;;;;;11.87;5.80;;;;;;;8.09;100.00;94431.09;5072462;28;20716;-83
2021/08/24 05:48:37;;;;;;;14.37;5.17;;;;;;;8.17;100.00;94432.03;5072743;28;20199;-83
2021/08/24 05:51:09;;;;;;;21.13;7.20;;;;;;;8.29;100.00;94435.84;5072583;28;20226;-83
2021/08/24 05:53:36;;;;;;;19.10;6.20;;;;;;;8.37;100.00;94435.81;5072703;28;20226;-82
2021/08/24 05:56:02;;;;;;;17.50;6.53;;;;;;;8.47;100.00;94440.84;5072585;28;20199;-82
2021/08/24 05:58:28;;;;;;;14.03;6.57;;;;;;;8.57;100.00;94438.03;5072454;28;20194;-83
2021/08/24 06:00:56;;;;;;;17.50;6.13;;;;;;;8.64;100.00;94436.34;5072783;28;20205;-82
2021/08/24 06:03:23;;;;;;;14.37;6.47;;;;;;;8.69;100.00;94439.25;5072585;28;20207;-82
2021/08/24 06:05:49;;;;;;;15.97;6.50;;;;;;;8.80;100.00;94432.84;5072560;28;20206;-83
2021/08/24 06:08:16;;;;;;;20.00;6.57;;;;;;;8.92;100.00;94430.66;5072396;28;20585;-83
2021/08/24 06:10:42;;;;;;;17.47;6.93;;;;;;;9.04;100.00;94437.06;5072354;28;20258;-82
2021/08/24 06:13:09;;;;;;;17.10;7.40;;;;;;;9.32;100.00;94428.72;5072289;28;20213;-82
2021/08/24 06:15:36;;;;;;;20.55;10.50;;;;;;;9.48;100.00;94431.16;5071652;28;20430;-81
2021/08/24 06:18:04;;;;;;;20.10;8.20;;;;;;;9.74;100.00;94422.09;5073222;28;20205;-83
2021/08/24 06:20:31;;;;;;;15.03;7.87;;;;;;;10.19;100.00;94428.13;5073017;28;20195;-83
2021/08/24 06:22:58;;;;;;;15.73;7.00;;;;;;;10.35;100.00;94425.34;5072449;28;20199;-82
2021/08/24 06:25:24;;;;;;;14.57;6.93;;;;;;;10.74;100.00;94429.41;5072268;28;20561;-83
2021/08/24 06:27:51;;;;;;;19.77;6.90;;;;;;;10.84;100.00;94438.72;5072292;28;20203;-83
2021/08/24 06:30:18;;;;;;;16.80;6.13;;;;;;;10.80;100.00;94429.66;5074300;28;20227;-83
2021/08/24 06:32:47;;;;;;;13.77;5.90;;;;;;;11.02;100.00;94431.28;5076296;28;20209;-82
2021/08/24 06:35:16;;;;;;;12.40;5.00;;;;;;;11.04;100.00;94431.91;5076038;28;20199;-83
2021/08/24 06:37:42;;;;;;;11.33;4.50;;;;;;;11.35;100.00;94427.34;5075602;28;20565;-83
2021/08/24 06:40:10;;;;;;;12.93;4.83;;;;;;;11.33;100.00;94435.38;5076274;28;20206;-83
2021/08/24 06:42:41;;;;;;;16.27;4.47;;;;;;;11.38;100.00;94437.44;5075860;28;20203;-83
2021/08/24 06:45:08;;;;;;;8.23;4.20;;;;;;;11.58;100.00;94437.59;5076185;28;20221;-82
2021/08/24 06:47:34;;;;;;;8.43;4.27;;;;;;;11.46;100.00;94435.50;5078314;28;20194;-83
2021/08/24 06:50:01;;;;;;;7.30;4.60;;;;;;;11.61;100.00;94434.59;5075727;28;20577;-83
2021/08/24 06:52:29;;;;;;;7.33;4.53;;;;;;;11.54;100.00;94429.31;5076757;28;20657;-82
2021/08/24 06:54:55;;;;;;;8.83;4.70;;;;;;;11.82;100.00;94429.31;5076827;28;20206;-83
2021/08/24 06:57:21;;;;;;;9.40;4.60;;;;;;;12.00;100.00;94433.25;5076942;28;20199;-82
2021/08/24 06:59:48;;;;;;;10.27;5.00;;;;;;;12.31;100.00;94426.78;5075725;28;20666;-82
2021/08/24 07:02:14;;;;;;;9.43;4.53;;;;;;;12.15;100.00;94415.63;5076084;28;20202;-83
2021/08/24 07:04:42;;;;;;;8.60;4.13;;;;;;;12.13;100.00;94419.44;5075486;28;20198;-81
2021/08/24 07:07:09;;;;;;;7.37;4.17;;;;;;;12.00;100.00;94409.72;5076313;28;20199;-82
2021/08/24 07:09:36;;;;;;;12.83;4.53;;;;;;;12.49;100.00;94416.59;5075838;28;20234;-82
2021/08/24 07:12:03;;;;;;;7.20;4.17;;;;;;;12.53;100.00;94428.28;5075951;28;20207;-81
2021/08/24 07:14:29;;;;;;;9.02;4.10;;;;;;;12.51;100.00;94422.44;5075632;28;20205;-81
2021/08/24 07:16:56;;;;;;;4.97;3.33;;;;;;;12.48;100.00;94422.81;5076583;28;20202;-83
2021/08/24 07:19:22;;;;;;;5.72;3.10;;;;;;;12.77;100.00;94423.50;5075088;28;20198;-80
2021/08/24 07:21:49;;;;;;;7.75;3.35;;;;;;;13.04;100.00;94428.78;5075597;28;20202;-81
2021/08/24 07:24:15;;;;;;;6.45;2.80;;;;;;;13.12;100.00;94424.19;5075121;28;20202;-81
2021/08/24 07:26:43;;;;;;;5.40;3.00;;;;;;;13.55;100.00;94425.63;5074699;28;20674;-82
2021/08/24 07:29:10;;;;;;;9.07;3.20;;;;;;;13.51;100.00;94417.38;5075304;28;20202;-82
2021/08/24 07:31:38;;;;;;;4.50;3.03;;;;;;;13.94;100.00;94418.75;5075367;28;20230;-82
2021/08/24 07:34:05;;;;;;;6.68;2.90;;;;;;;13.98;100.00;94419.94;5074865;28;20202;-82
2021/08/24 07:36:31;;;;;;;6.22;3.25;;;;;;;14.12;100.00;94419.91;5075660;28;20195;-82
2021/08/24 07:38:58;;;;;;;5.53;3.05;;;;;;;13.76;100.00;94429.06;5107905;28;20202;-80
2021/08/24 07:41:25;;;;;;;4.97;2.92;;;;;;;13.74;100.00;94433.69;5074810;28;20211;-81
2021/08/24 07:43:53;;;;;;;9.95;3.20;;;;;;;13.26;100.00;94425.00;5075391;28;20203;-81
2021/08/24 07:46:19;;;;;;;7.30;3.78;;;;;;;13.02;100.00;94421.13;5074788;28;20235;-82
2021/08/24 07:48:46;;;;;;;5.78;3.30;;;;;;;13.16;100.00;94426.41;5075376;28;20285;-81
2021/08/24 07:51:13;;;;;;;7.50;2.92;;;;;;;13.32;100.00;94433.91;5075299;28;20585;-83
2021/08/24 07:53:39;;;;;;;7.80;3.63;;;;;;;13.30;100.00;94426.22;5074520;28;20202;-82
2021/08/24 07:56:09;;;;;;;8.30;3.42;;;;;;;13.50;100.00;94420.19;5074665;28;20562;-83
2021/08/24 07:58:35;;;;;;;5.57;3.42;;;;;;;13.45;100.00;94420.00;5074384;28;20195;-83
2021/08/24 08:01:03;;;;;;;5.55;3.17;;;;;;;13.61;100.00;94416.16;5074349;28;20210;-83
2021/08/24 08:03:30;;;;;;;8.95;3.15;;;;;;;14.03;100.00;94414.06;5074263;28;20194;-81
2021/08/24 08:05:56;;;;;;;9.77;3.30;;;;;;;14.09;100.00;94415.06;5074328;28;20203;-82
2021/08/24 08:08:23;;;;;;;7.10;2.85;;;;;;;14.09;100.00;94418.50;5074193;28;20199;-82
2021/08/24 08:10:49;;;;;;;9.18;3.38;;;;;;;14.30;100.00;94429.75;5074392;28;20234;-82
2021/08/24 08:13:16;;;;;;;7.32;3.13;;;;;;;14.17;100.00;94420.91;5074736;28;20212;-83
2021/08/24 08:15:43;;;;;;;5.38;3.10;;;;;;;13.88;100.00;94428.22;5074655;28;20245;-82
2021/08/24 08:18:11;;;;;;;8.13;3.67;;;;;;;13.36;100.00;94437.75;5075274;28;20202;-82
2021/08/24 08:20:44;;;;;;;7.82;3.60;;;;;;;13.46;100.00;94427.66;5077179;28;20206;-83
2021/08/24 08:23:11;;;;;;;4.15;3.00;;;;;;;13.27;100.00;94426.63;5079657;28;20202;-82
2021/08/24 08:25:37;;;;;;;12.07;3.45;;;;;;;13.68;100.00;94435.31;5075202;28;20203;-84
2021/08/24 08:28:05;;;;;;;5.00;2.97;;;;;;;13.66;100.00;94443.41;5074389;28;20210;-83
2021/08/24 08:30:32;;;;;;;6.60;2.95;;;;;;;13.86;100.00;94438.13;5074218;28;20234;-83
2021/08/24 08:32:59;;;;;;;5.72;2.85;;;;;;;14.17;100.00;94441.09;5075854;28;20202;-83
2021/08/24 08:35:28;;;;;;;6.50;3.78;;;;;;;13.63;100.00;94435.94;5076826;28;20592;-83
2021/08/24 08:37:55;;;;;;;6.10;3.15;;;;;;;13.83;100.00;94437.75;5075731;28;20623;-82
2021/08/24 08:40:28;;;;;;;6.32;3.15;;;;;;;13.92;100.00;94449.63;5074546;28;20206;-81
2021/08/24 08:43:00;;;;;;;5.97;3.45;;;;;;;14.13;100.00;94442.53;5073654;28;20281;-82
2021/08/24 08:45:35;;;;;;;6.47;3.42;;;;;;;13.75;100.00;94448.44;5073850;28;20589;-83
2021/08/24 08:48:15;;;;;;;5.50;3.03;;;;;;;13.85;100.00;94444.38;5073724;28;20222;-82
2021/08/24 08:50:49;;;;;;;6.28;3.15;;;;;;;13.78;100.00;94442.78;5073105;28;20234;-84
2021/08/24 08:53:30;;;;;;;6.70;3.33;;;;;;;13.73;100.00;94445.22;5072581;28;20209;-80
2021/08/24 08:56:05;;;;;;;6.00;3.03;;;;;;;14.22;100.00;94443.91;5073320;28;20217;-82
2021/08/24 08:58:41;;;;;;;7.63;3.38;;;;;;;14.14;100.00;94444.13;5073427;28;20201;-82
2021/08/24 09:01:15;;;;;;;5.38;3.20;;;;;;;14.33;100.00;94447.75;5073165;28;20202;-82
2021/08/24 09:03:51;;;;;;;6.55;3.45;;;;;;;14.43;100.00;94445.47;5073177;28;20199;-82
2021/08/24 09:06:21;;;;;;;8.88;3.00;;;;;;;14.92;100.00;94436.19;5073533;28;20210;-82
2021/08/24 09:08:48;;;;;;;4.75;3.00;;;;;;;15.02;100.00;94438.38;5073284;28;20199;-82
2021/08/24 09:11:15;;;;;;;5.13;3.05;;;;;;;15.12;100.00;94438.72;5073068;28;20233;-81
2021/08/24 09:13:47;;;;;;;4.65;2.70;;;;;;;15.36;100.00;94441.59;5054078;28;20207;-82
2021/08/24 09:16:25;;;;;;;5.65;3.20;;;;;;;15.14;100.00;94449.81;5052347;28;20443;-83
2021/08/24 09:18:55;;;;;;;4.30;2.70;;;;;;;15.31;100.00;94446.69;5053309;28;20214;-83
2021/08/24 09:21:26;;;;;;;6.13;2.58;;;;;;;15.08;100.00;94444.59;5062750;28;20209;-81
2021/08/24 09:23:54;;;;;;;5.25;3.00;;;;;;;14.70;100.00;94450.66;5073403;28;20206;-81
2021/08/24 09:26:48;;;;;;;6.78;3.22;;;;;;;14.56;100.00;94442.81;5073562;28;20199;-84
2021/08/24 09:29:16;;;;;;;5.82;2.63;;;;;;;14.57;100.00;94443.59;5073264;28;20202;-82
2021/08/24 09:31:44;;;;;;;7.47;3.42;;;;;;;14.46;100.00;94446.91;5073033;28;20716;-82
2021/08/24 09:34:12;;;;;;;4.85;3.20;;;;;;;14.63;100.00;94450.69;5072804;28;20229;-82
2021/08/24 09:36:40;;;;;;;5.90;3.30;;;;;;;14.47;100.00;94448.50;5072763;28;20195;-82
2021/08/24 09:39:06;;;;;;;6.57;3.45;;;;;;;14.12;100.00;94454.88;5073102;28;20232;-82
2021/08/24 09:41:36;;;;;;;5.03;3.50;;;;;;;14.32;100.00;94443.47;5072713;28;20206;-82
2021/08/24 09:44:20;;;;;;;6.25;3.35;;;;;;;14.49;100.00;94454.34;5072747;28;20194;-82
2021/08/24 09:46:49;;;;;;;5.72;3.33;;;;;;;14.76;100.00;94448.00;5072532;28;20732;-82
2021/08/24 09:49:32;;;;;;;6.50;3.40;;;;;;;14.87;100.00;94457.06;5072629;28;20383;-81
2021/08/24 09:52:02;;;;;;;7.20;3.30;;;;;;;15.24;100.00;94441.47;5072779;28;20218;-82
2021/08/24 09:54:33;;;;;;;4.97;2.97;;;;;;;15.83;100.00;94436.78;5072566;28;20210;-83
2021/08/24 09:57:03;;;;;;;4.22;2.40;;;;;;;16.50;100.00;94438.72;5072855;28;20202;-82
2021/08/24 09:59:33;;;;;;;4.15;2.30;;;;;;;16.92;98.20;94436.25;5072699;28;20209;-82
2021/08/24 10:02:00;;;;;;;4.95;2.70;;;;;;;17.23;94.25;94431.75;5071385;28;20439;-82
2021/08/24 10:04:27;;;;;;;4.32;2.55;;;;;;;17.16;94.25;94434.47;5071925;28;20668;-81
2021/08/24 10:06:57;;;;;;;7.53;3.00;;;;;;;17.38;93.10;94437.41;5076259;28;20206;-82
2021/08/24 10:09:31;;;;;;;4.72;2.80;;;;;;;16.71;98.31;94431.41;5076662;28;20202;-81
2021/08/24 10:12:15;;;;;;;3.80;2.10;;;;;;;16.77;97.19;94436.59;5076270;28;20701;-81
2021/08/24 10:14:43;;;;;;;8.95;2.80;;;;;;;16.54;94.29;94439.13;5076102;28;20194;-81
2021/08/24 10:17:20;;;;;;;5.22;2.55;;;;;;;16.80;95.00;94441.44;5076079;28;20207;-83
2021/08/24 10:19:47;;;;;;;4.35;2.50;;;;;;;16.25;96.64;94437.00;5076144;28;20202;-84
2021/08/24 10:22:17;;;;;;;5.45;2.10;;;;;;;16.39;95.44;94442.91;5076171;28;20592;-81
2021/08/24 10:24:57;;;;;;;3.22;1.95;;;;;;;16.17;98.06;94444.38;5075972;28;20594;-83
2021/08/24 10:27:26;;;;;;;5.50;2.70;;;;;;;16.03;99.64;94436.59;5077057;28;20649;-82
2021/08/24 10:29:55;;;;;;;5.38;2.47;;;;;;;15.99;100.00;94437.28;5077029;28;20535;-85
2021/08/24 10:32:27;;;;;;;8.13;2.03;;;;;;;16.33;95.87;94432.47;5075930;28;20226;-81
2021/08/24 10:34:54;;;;;;;4.53;2.17;;;;;;;17.08;94.37;94429.50;5075965;28;20202;-82
2021/08/24 10:37:40;;;;;;;5.18;2.50;;;;;;;17.32;93.81;94438.31;5075788;28;20210;-82
2021/08/24 10:40:30;;;;;;;4.88;2.38;;;;;;;16.31;95.80;94432.66;5075902;28;20553;-81
2021/08/24 10:43:26;;;;;;;3.08;2.20;;;;;;;15.81;97.94;94432.78;5076182;28;20244;-81
2021/08/24 10:46:15;;;;;;;3.80;2.40;;;;;;;15.79;100.00;94434.81;5075883;28;20457;-80
2021/08/24 10:48:42;;;;;;;4.28;2.45;;;;;;;15.82;100.00;94434.38;5077211;28;20199;-81
2021/08/24 10:51:18;;;;;;;5.20;2.30;;;;;;;16.47;96.92;94439.19;5076616;28;20226;-83
2021/08/24 10:53:59;;;;;;;6.32;2.45;;;;;;;16.79;95.65;94437.19;5077546;28;20284;-81
2021/08/24 10:56:33;;;;;;;3.58;2.22;;;;;;;16.48;93.94;94435.53;5075883;28;20206;-81
2021/08/24 10:59:07;;;;;;;3.50;2.08;;;;;;;16.49;95.52;94439.78;5076044;28;20199;-81
2021/08/24 11:01:39;;;;;;;4.45;2.38;;;;;;;16.17;95.08;94436.47;5077940;28;20298;-82
2021/08/24 11:04:25;;;;;;;8.88;2.50;;;;;;;16.21;97.19;94435.00;5066737;28;20203;-82
2021/08/24 11:07:02;;;;;;;4.05;2.25;;;;;;;16.33;96.75;94438.53;5055932;28;20223;-80
2021/08/24 11:09:38;;;;;;;3.28;2.05;;;;;;;16.70;91.91;94435.06;5055675;28;20570;-83
2021/08/24 11:12:19;;;;;;;3.95;1.92;;;;;;;17.31;92.53;94428.78;5055839;28;20223;-81
2021/08/24 11:14:59;;;;;;;4.90;2.22;;;;;;;18.12;85.55;94439.69;5060680;28;20220;-81
2021/08/24 11:17:32;;;;;;;6.20;2.15;;;;;;;18.02;87.56;94439.47;5076736;28;20206;-81
2021/08/24 11:20:09;;;;;;;2.38;1.67;;;;;;;18.06;85.25;94437.16;5076537;28;20235;-82
2021/08/24 11:22:55;;;;;;;2.63;1.60;;;;;;;17.70;85.89;94442.41;5076203;28;20210;-81
2021/08/24 11:25:35;;;;;;;3.42;2.17;;;;;;;16.49;94.45;94445.03;5075527;28;20210;-82
2021/08/24 11:28:09;;;;;;;4.43;2.30;;;;;;;16.66;95.66;94442.63;5075803;28;20203;-83
2021/08/24 11:30:41;;;;;;;9.63;3.00;;;;;;;16.91;99.46;94439.88;5074917;28;20210;-81
2021/08/24 11:33:13;;;;;;;8.30;3.08;;;;;;;16.75;100.00;94443.94;5074836;28;20199;-82
2021/08/24 11:35:47;;;;;;;6.05;3.60;;;;;;;16.19;100.00;94448.41;5074670;28;20207;-82
2021/08/24 11:38:18;;;;;;;4.78;2.63;;;;;;;16.04;100.00;94451.38;5075145;28;20199;-82
2021/08/24 11:40:51;;;;;;;4.43;2.78;;;;;;;16.30;100.00;94448.69;5075230;28;20206;-83